Time;durP1;ratioP1;P1;durP2;ratioP2;P2;SDS_P1;SDS_P2;PMS_P1;PMS_P2;Temp;Humidity;BMP_temperature;BMP_pressure;BME280_temperature;BME280_humidity;BME280_pressure;Samples;Min_cycle;Max_cycle;Signal;HPM_P1;HPM_P2
2022/03/13 00:01:23;;;;;;;73.83;23.00;;;-3274.10;48.10;;;;;;5073388;28;20028;-87
2022/03/13 00:03:49;;;;;;;;;;;-3274.10;48.30;;;;;;5073795;28;20400;-87
2022/03/13 00:06:14;;;;;;;83.13;25.17;;;-3274.00;48.40;;;;;;5073387;28;19908;-87
2022/03/13 00:08:41;;;;;;;70.13;22.58;;;-3274.00;48.10;;;;;;5073531;28;20103;-87
2022/03/13 00:11:17;;;;;;;73.43;25.53;;;-3274.00;48.30;;;;;;5072870;28;20027;-85
2022/03/13 00:13:50;;;;;;;79.65;23.70;;;-3273.90;48.60;;;;;;5075141;28;20021;-87
2022/03/13 00:16:20;;;;;;;78.23;24.17;;;-3273.90;48.80;;;;;;5074067;28;20029;-88
2022/03/13 00:18:47;;;;;;;67.13;21.37;;;-3273.80;48.90;;;;;;5073986;28;20106;-87
2022/03/13 00:21:14;;;;;;;76.53;22.60;;;-3273.90;49.10;;;;;;5073440;28;20028;-87
2022/03/13 00:23:41;;;;;;;65.60;22.77;;;-3273.90;49.30;;;;;;5073512;28;20091;-86
2022/03/13 00:26:07;;;;;;;62.97;21.43;;;-3273.80;49.40;;;;;;5073204;28;20029;-86
2022/03/13 00:28:32;;;;;;;;;;;-3273.80;49.50;;;;;;5074579;28;20103;-87
2022/03/13 00:30:58;;;;;;;59.57;19.70;;;-3273.80;49.60;;;;;;5073716;28;20317;-87
2022/03/13 00:33:25;;;;;;;55.72;20.48;;;-3273.70;49.30;;;;;;5074500;28;20028;-87
2022/03/13 00:35:51;;;;;;;70.07;20.57;;;-3273.70;49.50;;;;;;5073768;28;20021;-88
2022/03/13 00:38:16;;;;;;;;;;;-3273.70;49.70;;;;;;5076149;28;20098;-87
2022/03/13 00:40:43;;;;;;;77.90;25.40;;;-3273.70;49.80;;;;;;5073732;28;19912;-87
2022/03/13 00:43:08;;;;;;;88.87;26.63;;;-3273.60;49.50;;;;;;5073149;28;20544;-88
2022/03/13 00:45:34;;;;;;;;;;;-3273.60;49.70;;;;;;5074189;28;20058;-88
2022/03/13 00:48:00;;;;;;;77.43;24.70;;;-3273.50;49.80;;;;;;5073404;28;19964;-88
2022/03/13 00:50:26;;;;;;;72.55;23.42;;;-3273.50;49.50;;;;;;5074160;28;20122;-88
2022/03/13 00:52:51;;;;;;;74.45;23.40;;;-3273.50;49.70;;;;;;5072871;28;20028;-88
2022/03/13 00:55:17;;;;;;;66.10;21.27;;;-3273.40;49.90;;;;;;5073350;28;20437;-89
2022/03/13 00:57:43;;;;;;;66.25;22.08;;;-3273.40;50.10;;;;;;5073278;28;20020;-87
2022/03/13 01:00:13;;;;;;;74.68;24.33;;;-3273.40;50.30;;;;;;5073820;28;20472;-88
2022/03/13 01:02:40;;;;;;;75.57;24.07;;;-3273.30;50.40;;;;;;5075066;28;20024;-87
2022/03/13 01:05:09;;;;;;;75.23;21.90;;;-3273.30;50.60;;;;;;5074984;28;20601;-87
2022/03/13 01:07:39;;;;;;;67.27;24.70;;;-3273.30;50.70;;;;;;5072798;28;20598;-88
2022/03/13 01:10:07;;;;;;;58.77;22.93;;;-3273.20;50.80;;;;;;5089068;28;20477;-88
2022/03/13 01:12:34;;;;;;;81.87;24.40;;;-3273.20;51.00;;;;;;5072638;28;20017;-87
2022/03/13 01:15:00;;;;;;;75.93;26.13;;;-3273.20;51.00;;;;;;5073659;28;20117;-87
2022/03/13 01:17:25;;;;;;;;;;;-3273.10;51.10;;;;;;5092747;28;20445;-88
2022/03/13 01:19:51;;;;;;;78.17;26.27;;;-3273.20;51.20;;;;;;5073447;28;20277;-88
2022/03/13 01:22:17;;;;;;;82.43;26.10;;;-3273.10;50.80;;;;;;5073564;28;20048;-88
2022/03/13 01:24:43;;;;;;;83.15;27.13;;;-3273.10;51.00;;;;;;5073586;28;20047;-88
2022/03/13 01:27:09;;;;;;;83.83;29.47;;;-3273.00;51.10;;;;;;5073639;28;20465;-86
2022/03/13 01:29:35;;;;;;;103.20;33.63;;;-3273.00;51.30;;;;;;5072914;28;20017;-87
2022/03/13 01:32:01;;;;;;;;;;;-3273.00;51.50;;;;;;5073068;28;20099;-88
2022/03/13 01:34:33;;;;;;;97.97;29.97;;;-3273.00;51.50;;;;;;5073582;28;19915;-88
2022/03/13 01:36:59;;;;;;;81.50;29.77;;;-3273.00;51.20;;;;;;5070722;28;20025;-88
2022/03/13 01:39:24;;;;;;;;;;;-3273.00;51.30;;;;;;5072466;28;20020;-88
2022/03/13 01:41:50;;;;;;;65.87;22.90;;;-3273.00;51.50;;;;;;5072038;28;19909;-86
2022/03/13 01:44:19;;;;;;;65.07;21.70;;;-3272.90;51.20;;;;;;5071847;28;20025;-87
2022/03/13 01:46:45;;;;;;;52.50;21.27;;;-3272.90;51.40;;;;;;5074661;28;20028;-87
2022/03/13 01:49:10;;;;;;;;;;;-3272.90;51.60;;;;;;5075861;28;20021;-86
2022/03/13 01:51:36;;;;;;;55.33;20.77;;;-3272.80;51.80;;;;;;5071986;28;19947;-85
2022/03/13 01:54:08;;;;;;;56.07;19.57;;;-3272.80;51.50;;;;;;5071900;28;20465;-87
2022/03/13 01:56:37;;;;;;;58.40;20.90;;;-3272.80;51.80;;;;;;5072328;28;20031;-89
2022/03/13 01:59:04;;;;;;;63.23;21.10;;;-3272.80;51.90;;;;;;5072424;28;20063;-88
2022/03/13 02:01:30;;;;;;;55.30;22.73;;;-3272.80;52.10;;;;;;5071158;28;20112;-88
2022/03/13 02:03:56;;;;;;;;;;;-3272.80;52.20;;;;;;5072507;28;20107;-88
2022/03/13 02:06:26;;;;;;;69.40;20.27;;;-3272.70;52.30;;;;;;5075185;28;19908;-87
2022/03/13 02:08:53;;;;;;;59.33;20.03;;;-3272.70;52.00;;;;;;5072429;28;20082;-87
2022/03/13 02:11:20;;;;;;;64.37;22.23;;;-3272.70;52.10;;;;;;5072519;28;20469;-88
2022/03/13 02:13:55;;;;;;;60.27;24.23;;;-3272.70;52.30;;;;;;5070178;28;20054;-87
2022/03/13 02:16:28;;;;;;;72.47;24.60;;;-3272.60;52.50;;;;;;5072519;28;20115;-87
2022/03/13 02:18:55;;;;;;;71.93;25.67;;;-3272.60;52.60;;;;;;5069663;28;20389;-88
2022/03/13 02:21:25;;;;;;;72.13;27.37;;;-3272.60;52.60;;;;;;5073422;28;20025;-87
2022/03/13 02:23:51;;;;;;;75.40;24.37;;;-3272.60;52.80;;;;;;5078905;28;20032;-88
2022/03/13 02:26:20;;;;;;;;;;;-3272.50;52.90;;;;;;5076740;28;20473;-88
2022/03/13 02:28:53;;;;;;;66.87;22.63;;;-3272.60;53.00;;;;;;5076110;28;20007;-87
2022/03/13 02:31:35;;;;;;;71.90;23.80;;;-3272.60;52.70;;;;;;5078803;28;20431;-87
2022/03/13 02:34:01;;;;;;;64.57;23.17;;;-3272.50;52.90;;;;;;5076172;28;20386;-88
2022/03/13 02:36:29;;;;;;;;;;;-3272.50;52.90;;;;;;5076201;28;20266;-87
2022/03/13 02:38:54;;;;;;;53.00;20.67;;;-3272.50;53.00;;;;;;5075734;28;19915;-87
2022/03/13 02:41:20;;;;;;;;;;;-3272.50;52.70;;;;;;5076091;28;20405;-87
2022/03/13 02:43:45;;;;;;;43.60;18.53;;;-3272.50;52.80;;;;;;5075837;28;19936;-87
2022/03/13 02:46:20;;;;;;;47.30;18.92;;;-3272.40;52.60;;;;;;5076566;28;20059;-87
2022/03/13 02:48:46;;;;;;;54.77;20.13;;;-3272.40;52.70;;;;;;5075674;28;20021;-87
2022/03/13 02:51:12;;;;;;;60.60;22.10;;;-3272.40;52.80;;;;;;5075601;28;20628;-85
2022/03/13 02:53:38;;;;;;;62.22;22.17;;;-3272.40;53.00;;;;;;5075297;28;20043;-87
2022/03/13 02:56:03;;;;;;;;;;;-3272.40;53.10;;;;;;5077218;28;20031;-87
2022/03/13 02:58:30;;;;;;;46.87;19.07;;;-3272.40;53.20;;;;;;5075573;28;19904;-87
2022/03/13 03:00:56;;;;;;;;;;;-3272.30;52.90;;;;;;5075652;28;20024;-86
2022/03/13 03:03:23;;;;;;;48.20;18.13;;;-3272.30;53.00;;;;;;5108752;28;20450;-87
2022/03/13 03:05:50;;;;;;;43.60;18.40;;;-3272.30;52.80;;;;;;5075341;28;20336;-88
2022/03/13 03:08:16;;;;;;;43.60;17.10;;;-3272.20;52.90;;;;;;5075419;28;20259;-87
2022/03/13 03:10:42;;;;;;;43.03;16.60;;;-3272.20;53.10;;;;;;5075302;28;20623;-86
2022/03/13 03:13:08;;;;;;;;;;;-3272.20;53.30;;;;;;5075512;28;20286;-84
2022/03/13 03:15:34;;;;;;;49.47;15.83;;;-3272.20;53.40;;;;;;5074531;28;20269;-87
2022/03/13 03:18:01;;;;;;;;;;;-3272.20;53.20;;;;;;5075302;28;20021;-87
2022/03/13 03:20:27;;;;;;;42.13;14.25;;;-3272.10;53.30;;;;;;5074725;28;19909;-88
2022/03/13 03:22:53;;;;;;;;;;;-3272.20;53.00;;;;;;5075152;28;20044;-87
2022/03/13 03:25:27;;;;;;;41.07;13.93;;;-3272.10;53.10;;;;;;5074943;28;20012;-87
2022/03/13 03:27:54;;;;;;;43.47;15.93;;;-3272.10;53.00;;;;;;5067881;28;20017;-88
2022/03/13 03:30:24;;;;;;;41.50;14.03;;;-3272.10;53.20;;;;;;5075059;28;20331;-89
2022/03/13 03:32:50;;;;;;;36.67;15.93;;;-3272.10;53.40;;;;;;5076241;28;20278;-88
2022/03/13 03:35:22;;;;;;;43.87;14.93;;;-3272.00;53.60;;;;;;5074350;28;20320;-87
2022/03/13 03:37:49;;;;;;;37.67;14.20;;;-3272.00;53.70;;;;;;5074003;28;20635;-87
2022/03/13 03:40:15;;;;;;;34.60;13.07;;;-3272.00;53.80;;;;;;5074942;28;20271;-87
2022/03/13 03:42:42;;;;;;;42.28;14.57;;;-3272.00;53.90;;;;;;5075818;28;20273;-88
2022/03/13 03:45:08;;;;;;;43.67;14.57;;;-3272.00;54.00;;;;;;5074468;28;20032;-88
2022/03/13 03:47:34;;;;;;;33.73;14.57;;;-3272.00;54.10;;;;;;5075723;28;20620;-88
2022/03/13 03:50:00;;;;;;;43.45;14.50;;;-3272.00;54.20;;;;;;5074751;28;20259;-87
2022/03/13 03:52:25;;;;;;;;;;;-3272.00;54.20;;;;;;5074807;28;20079;-87
2022/03/13 03:54:51;;;;;;;37.70;15.00;;;-3272.00;54.20;;;;;;5074497;28;19913;-86
2022/03/13 03:57:18;;;;;;;47.13;17.73;;;-3272.00;53.90;;;;;;5074687;28;20104;-87
2022/03/13 03:59:44;;;;;;;45.30;15.93;;;-3272.00;54.00;;;;;;5074699;28;20597;-86
2022/03/13 04:02:09;;;;;;;45.47;17.30;;;-3272.00;54.20;;;;;;5071246;28;20266;-87
2022/03/13 04:04:35;;;;;;;;;;;-3272.00;54.30;;;;;;5075047;28;20035;-86
2022/03/13 04:07:00;;;;;;;40.77;15.70;;;-3271.90;54.40;;;;;;5074125;28;19905;-86
2022/03/13 04:09:26;;;;;;;;;;;-3272.00;54.10;;;;;;5074740;28;20025;-87
2022/03/13 04:11:52;;;;;;;32.40;13.60;;;-3271.90;54.20;;;;;;5073647;28;19915;-86
2022/03/13 04:14:20;;;;;;;;;;;-3271.90;53.90;;;;;;5074689;28;20089;-87
2022/03/13 04:16:46;;;;;;;33.07;12.03;;;-3271.90;54.10;;;;;;5078114;28;20315;-86
2022/03/13 04:19:11;;;;;;;;;;;-3271.90;53.90;;;;;;5073849;28;20772;-87
2022/03/13 04:21:41;;;;;;;36.80;13.60;;;-3271.90;54.10;;;;;;5073921;28;19908;-87
2022/03/13 04:24:11;;;;;;;36.70;13.57;;;-3271.80;53.90;;;;;;5073423;28;20047;-83
2022/03/13 04:26:39;;;;;;;44.00;14.80;;;-3271.80;54.10;;;;;;5074814;28;20274;-87
2022/03/13 04:29:06;;;;;;;42.40;14.83;;;-3271.80;54.30;;;;;;5073590;28;20270;-87
2022/03/13 04:31:35;;;;;;;31.77;13.57;;;-3271.80;54.50;;;;;;5073605;28;20756;-88
2022/03/13 04:34:01;;;;;;;40.57;13.77;;;-3271.80;54.70;;;;;;5073736;28;20835;-87
2022/03/13 04:36:28;;;;;;;33.10;14.00;;;-3271.80;54.80;;;;;;5073364;28;20267;-88
2022/03/13 04:38:53;;;;;;;34.13;14.67;;;-3271.80;54.90;;;;;;5073630;28;20020;-87
2022/03/13 04:41:20;;;;;;;39.90;15.65;;;-3271.80;55.00;;;;;;5075509;28;20349;-89
2022/03/13 04:43:46;;;;;;;43.60;13.80;;;-3271.80;55.10;;;;;;5074521;28;20434;-88
2022/03/13 04:46:11;;;;;;;36.15;13.88;;;-3271.80;55.20;;;;;;5073741;28;20255;-87
2022/03/13 04:48:37;;;;;;;;;;;-3271.80;55.30;;;;;;5073464;28;20502;-87
2022/03/13 04:51:02;;;;;;;40.87;14.63;;;-3271.80;55.30;;;;;;5073417;28;19990;-87
2022/03/13 04:53:29;;;;;;;;;;;-3271.80;55.00;;;;;;5073853;28;20020;-87
2022/03/13 04:55:55;;;;;;;28.60;12.38;;;-3271.80;55.10;;;;;;5073428;28;19909;-87
2022/03/13 04:58:21;;;;;;;;;;;-3271.80;54.80;;;;;;5073934;28;20078;-88
2022/03/13 05:00:49;;;;;;;41.43;15.90;;;-3271.70;54.90;;;;;;5089520;28;20353;-88
2022/03/13 05:03:15;;;;;;;42.10;17.00;;;-3271.70;54.70;;;;;;5089925;28;20060;-89
2022/03/13 05:05:40;;;;;;;27.95;14.05;;;-3271.70;54.80;;;;;;5074405;28;20286;-87
2022/03/13 05:08:17;;;;;;;38.72;17.15;;;-3271.70;55.10;;;;;;5073103;28;20051;-88
2022/03/13 05:10:43;;;;;;;;;;;-3271.70;55.20;;;;;;5074178;28;20020;-86
2022/03/13 05:13:12;;;;;;;28.83;11.60;;;-3271.70;55.30;;;;;;5073237;28;20045;-88
2022/03/13 05:15:38;;;;;;;43.30;14.33;;;-3271.70;55.10;;;;;;5073219;28;20024;-88
2022/03/13 05:18:04;;;;;;;;;;;-3271.70;55.00;;;;;;5073678;28;20266;-87
2022/03/13 05:20:31;;;;;;;35.20;12.80;;;-3271.70;55.20;;;;;;5075481;28;19908;-88
2022/03/13 05:22:57;;;;;;;41.77;15.00;;;-3271.80;55.00;;;;;;5072722;28;20067;-87
2022/03/13 05:25:24;;;;;;;42.80;15.90;;;-3271.70;55.10;;;;;;5072508;28;20309;-87
2022/03/13 05:27:53;;;;;;;46.43;17.20;;;-3271.80;55.30;;;;;;5074226;28;20281;-87
2022/03/13 05:30:20;;;;;;;41.33;16.67;;;-3271.90;55.40;;;;;;5073071;28;20662;-87
2022/03/13 05:32:46;;;;;;;47.17;16.87;;;-3272.00;55.50;;;;;;5072060;28;20327;-87
2022/03/13 05:35:12;;;;;;;47.27;17.03;;;-3272.10;55.50;;;;;;5072163;28;20271;-87
2022/03/13 05:37:38;;;;;;;44.10;17.07;;;-3272.20;55.50;;;;;;5071969;28;20669;-83
2022/03/13 05:40:05;;;;;;;53.22;18.88;;;-3272.40;55.60;;;;;;5073094;28;20282;-88
2022/03/13 05:42:31;;;;;;;55.87;18.50;;;-3272.60;55.60;;;;;;5072530;28;20546;-88
2022/03/13 05:44:56;;;;;;;59.33;22.02;;;-3272.80;55.50;;;;;;5074162;28;20275;-86
2022/03/13 05:47:22;;;;;;;;;;;-3273.00;55.40;;;;;;5072667;28;20017;-87
2022/03/13 05:49:48;;;;;;;72.10;24.63;;;-3273.30;55.30;;;;;;5072028;28;19995;-85
2022/03/13 05:52:15;;;;;;;;;;;-3273.50;54.90;;;;;;5072809;28;20089;-87
2022/03/13 05:54:44;;;;;;;78.55;26.15;;;-3273.70;54.90;;;;;;5071790;28;19908;-87
2022/03/13 05:57:11;;;;;;;86.50;30.10;;;-3273.90;54.40;;;;;;5073542;28;20489;-86
2022/03/13 05:59:38;;;;;;;90.80;28.47;;;-3274.00;54.40;;;;;;5075093;28;20036;-88
2022/03/13 06:02:05;;;;;;;104.20;31.47;;;-3274.10;54.50;;;;;;5075902;28;20021;-88
2022/03/13 06:04:36;;;;;;;87.10;32.13;;;-3274.20;54.60;;;;;;5076210;28;20543;-87
2022/03/13 06:07:03;;;;;;;93.57;31.00;;;-3274.40;54.80;;;;;;5074768;28;20046;-87
2022/03/13 06:09:28;;;;;;;81.70;31.50;;;-3274.60;54.80;;;;;;5076423;28;20017;-87
2022/03/13 06:11:54;;;;;;;81.13;31.55;;;-3274.80;54.80;;;;;;5077514;28;20074;-86
2022/03/13 06:14:20;;;;;;;76.28;30.27;;;-3274.90;54.90;;;;;;5075676;28;20112;-87
2022/03/13 06:16:45;;;;;;;93.00;35.67;;;-3275.10;54.90;;;;;;5092531;28;20024;-88
2022/03/13 06:19:11;;;;;;;100.10;39.85;;;-3275.30;54.90;;;;;;5075808;28;20362;-87
2022/03/13 06:21:39;;;;;;;79.40;32.60;;;-3275.40;54.90;;;;;;5080123;28;20074;-88
2022/03/13 06:24:04;;;;;;;90.83;34.93;;;-3275.60;54.90;;;;;;5074874;28;20043;-87
2022/03/13 06:26:31;;;;;;;141.38;49.72;;;-3275.80;54.90;;;;;;5076541;28;20021;-88
2022/03/13 06:28:59;;;;;;;104.00;38.60;;;-3276.00;55.00;;;;;;5075347;28;20052;-87
2022/03/13 06:31:25;;;;;;;73.10;27.77;;;-3276.10;55.10;;;;;;5075662;28;20469;-87
2022/03/13 06:33:50;;;;;;;70.07;26.13;;;-3276.30;55.10;;;;;;5074841;28;20021;-88
2022/03/13 06:36:16;;;;;;;65.00;27.08;;;-3276.40;55.10;;;;;;5075300;28;20560;-87
2022/03/13 06:38:41;;;;;;;71.65;27.10;;;-3276.50;55.10;;;;;;5078863;28;20031;-87
2022/03/13 06:41:07;;;;;;;68.95;27.90;;;-3276.70;55.10;;;;;;5075200;28;20055;-87
2022/03/13 06:43:34;;;;;;;77.35;29.65;;;-3276.70;55.10;;;;;;5076348;28;20017;-87
2022/03/13 06:46:01;;;;;;;78.53;29.33;;;0.00;55.00;;;;;;5075178;28;20016;-86
2022/03/13 06:48:27;;;;;;;82.30;30.93;;;0.10;55.10;;;;;;5074392;28;20020;-87
2022/03/13 06:50:53;;;;;;;77.05;31.80;;;0.10;55.00;;;;;;5074492;28;20090;-86
2022/03/13 06:53:19;;;;;;;77.77;30.00;;;0.30;55.10;;;;;;5074716;28;20013;-87
2022/03/13 06:55:45;;;;;;;85.07;31.95;;;0.40;55.00;;;;;;5074916;28;20020;-87
2022/03/13 06:58:11;;;;;;;;;;;0.60;54.90;;;;;;5075447;28;20044;-87
2022/03/13 07:00:36;;;;;;;82.43;31.13;;;0.70;54.70;;;;;;5091759;28;19908;-86
2022/03/13 07:03:02;;;;;;;81.30;31.30;;;0.90;54.20;;;;;;5095920;28;20016;-87
2022/03/13 07:05:27;;;;;;;79.50;31.27;;;1.00;54.30;;;;;;5079140;28;20080;-87
2022/03/13 07:07:54;;;;;;;91.50;33.70;;;1.20;54.20;;;;;;5074574;28;20033;-88
2022/03/13 07:10:21;;;;;;;82.80;33.77;;;1.30;54.20;;;;;;5073647;28;20024;-87
2022/03/13 07:12:47;;;;;;;84.40;35.60;;;1.40;54.20;;;;;;5074553;28;20024;-87
2022/03/13 07:15:14;;;;;;;84.17;34.87;;;1.60;54.20;;;;;;5075294;28;20088;-87
2022/03/13 07:17:43;;;;;;;80.67;34.87;;;1.80;54.20;;;;;;5077026;28;20050;-87
2022/03/13 07:20:10;;;;;;;81.83;33.40;;;1.90;54.10;;;;;;5073953;28;20091;-84
2022/03/13 07:22:35;;;;;;;85.93;35.57;;;2.00;54.00;;;;;;5075749;28;20028;-87
2022/03/13 07:25:01;;;;;;;94.50;35.00;;;2.20;53.90;;;;;;5075190;28;20033;-86
2022/03/13 07:27:26;;;;;;;90.05;35.13;;;2.30;53.80;;;;;;5073654;28;20535;-86
2022/03/13 07:29:52;;;;;;;87.35;34.00;;;2.40;53.70;;;;;;5075383;28;20038;-86
2022/03/13 07:32:17;;;;;;;79.18;32.88;;;2.60;53.60;;;;;;5074968;28;20048;-87
2022/03/13 07:34:43;;;;;;;80.80;32.35;;;2.70;53.50;;;;;;5074938;28;20033;-87
2022/03/13 07:37:11;;;;;;;72.72;32.33;;;2.90;53.30;;;;;;5075472;28;20032;-87
2022/03/13 07:39:39;;;;;;;77.13;30.10;;;3.00;53.10;;;;;;5073682;28;20025;-86
2022/03/13 07:42:06;;;;;;;68.37;29.30;;;3.10;52.90;;;;;;5091125;28;20035;-88
2022/03/13 07:44:31;;;;;;;76.97;31.13;;;3.30;52.80;;;;;;5073742;28;20050;-83
2022/03/13 07:46:57;;;;;;;70.55;28.92;;;3.40;52.60;;;;;;5071482;28;20439;-85
2022/03/13 07:49:23;;;;;;;62.72;26.48;;;3.60;52.30;;;;;;5074104;28;20514;-87
2022/03/13 07:51:48;;;;;;;66.72;29.50;;;3.80;51.80;;;;;;5073832;28;20051;-86
2022/03/13 07:54:14;;;;;;;55.90;26.27;;;4.00;51.40;;;;;;5073332;28;20397;-85
2022/03/13 07:56:41;;;;;;;63.25;26.58;;;4.20;50.90;;;;;;5074068;28;20103;-87
2022/03/13 07:59:07;;;;;;;60.80;26.87;;;4.40;50.20;;;;;;5073329;28;20029;-86
2022/03/13 08:01:33;;;;;;;;;;;4.60;49.40;;;;;;5073968;28;20029;-87
2022/03/13 08:04:01;;;;;;;64.57;26.47;;;4.80;49.00;;;;;;5073653;28;19912;-87
2022/03/13 08:06:27;;;;;;;61.07;26.43;;;4.90;48.20;;;;;;5072877;28;20024;-85
2022/03/13 08:08:54;;;;;;;60.10;27.33;;;5.00;47.40;;;;;;5074062;28;20024;-87
2022/03/13 08:11:19;;;;;;;75.37;28.67;;;5.20;46.90;;;;;;5077517;28;20013;-86
2022/03/13 08:13:45;;;;;;;62.45;27.85;;;5.30;46.30;;;;;;5072865;28;20173;-86
2022/03/13 08:16:10;;;;;;;65.90;26.27;;;5.50;45.80;;;;;;5073255;28;20036;-86
2022/03/13 08:18:36;;;;;;;65.95;28.20;;;5.70;45.30;;;;;;5073324;28;20024;-86
2022/03/13 08:21:02;;;;;;;60.67;27.93;;;5.80;44.80;;;;;;5072631;28;20028;-86
2022/03/13 08:23:28;;;;;;;68.90;28.48;;;5.90;44.40;;;;;;5072959;28;20044;-85
2022/03/13 08:25:54;;;;;;;70.03;28.58;;;6.00;43.80;;;;;;5074655;28;20079;-86
2022/03/13 08:28:20;;;;;;;68.47;26.93;;;6.10;43.50;;;;;;5072171;28;20127;-85
2022/03/13 08:30:46;;;;;;;70.80;30.27;;;6.20;43.00;;;;;;5072725;28;20059;-85
2022/03/13 08:33:11;;;;;;;70.63;29.85;;;6.20;42.70;;;;;;5072654;28;20059;-86
2022/03/13 08:35:37;;;;;;;67.38;27.63;;;6.30;42.40;;;;;;5074030;28;20365;-85
2022/03/13 08:38:03;;;;;;;68.28;29.35;;;6.30;42.30;;;;;;5072792;28;20027;-86
2022/03/13 08:40:29;;;;;;;69.70;28.92;;;6.40;42.00;;;;;;5088503;28;20027;-87
2022/03/13 08:42:56;;;;;;;72.47;32.20;;;6.60;41.60;;;;;;5072570;28;20050;-87
2022/03/13 08:45:22;;;;;;;72.90;30.17;;;6.60;41.30;;;;;;5072414;28;20040;-87
2022/03/13 08:47:48;;;;;;;70.13;29.50;;;6.70;41.10;;;;;;5072608;28;20020;-87
2022/03/13 08:50:15;;;;;;;74.78;31.50;;;6.80;40.80;;;;;;5072732;28;20103;-87
2022/03/13 08:52:41;;;;;;;65.37;29.63;;;6.90;40.60;;;;;;5072986;28;20024;-87
2022/03/13 08:55:13;;;;;;;59.55;26.20;;;6.90;40.40;;;;;;5078082;28;20519;-86
2022/03/13 08:57:43;;;;;;;63.17;27.83;;;7.00;40.20;;;;;;5072974;28;20151;-86
2022/03/13 09:00:11;;;;;;;60.90;27.03;;;7.10;39.80;;;;;;5067827;28;20119;-86
2022/03/13 09:02:38;;;;;;;55.37;24.73;;;7.10;39.40;;;;;;5072267;28;20070;-84
2022/03/13 09:05:04;;;;;;;58.17;25.80;;;7.20;39.20;;;;;;5071574;28;20111;-86
2022/03/13 09:07:29;;;;;;;55.40;25.60;;;7.20;38.90;;;;;;5072245;28;20079;-87
2022/03/13 09:09:55;;;;;;;57.92;26.35;;;7.30;38.70;;;;;;5072940;28;20027;-86
2022/03/13 09:12:20;;;;;;;54.72;24.30;;;7.30;38.40;;;;;;5073469;28;20060;-88
2022/03/13 09:14:46;;;;;;;60.65;23.23;;;7.40;38.00;;;;;;5089361;28;20036;-87
2022/03/13 09:17:12;;;;;;;54.35;24.42;;;7.40;37.70;;;;;;5072499;28;20024;-85
2022/03/13 09:19:38;;;;;;;;;;;7.40;37.50;;;;;;5072670;28;20107;-87
2022/03/13 09:22:04;;;;;;;53.47;22.93;;;7.40;37.70;;;;;;5072387;28;19958;-86
2022/03/13 09:24:30;;;;;;;56.15;24.27;;;7.50;37.50;;;;;;5072402;28;20040;-86
2022/03/13 09:26:55;;;;;;;52.73;23.30;;;7.50;37.30;;;;;;5072862;28;20384;-86
2022/03/13 09:29:21;;;;;;;49.85;22.25;;;7.50;37.10;;;;;;5073445;28;20028;-86
2022/03/13 09:31:47;;;;;;;47.33;19.52;;;7.60;37.00;;;;;;5071885;28;20480;-87
2022/03/13 09:34:13;;;;;;;;;;;7.60;36.50;;;;;;5072312;28;20017;-86
2022/03/13 09:36:39;;;;;;;39.80;16.63;;;7.70;36.20;;;;;;5071338;28;19961;-88
2022/03/13 09:39:05;;;;;;;;;;;7.80;35.90;;;;;;5074388;28;20097;-87
2022/03/13 09:41:31;;;;;;;39.00;15.37;;;7.80;35.70;;;;;;5071779;28;20018;-88
2022/03/13 09:43:56;;;;;;;43.35;19.08;;;7.80;35.30;;;;;;5073302;28;20491;-87
2022/03/13 09:46:22;;;;;;;45.67;18.73;;;7.80;34.70;;;;;;5071791;28;20066;-84
2022/03/13 09:48:50;;;;;;;40.10;17.75;;;7.80;34.80;;;;;;5070580;28;20055;-84
2022/03/13 09:51:19;;;;;;;37.40;14.93;;;7.80;34.70;;;;;;5071362;28;20416;-85
2022/03/13 09:53:44;;;;;;;35.77;14.60;;;7.90;34.60;;;;;;5071894;28;20035;-83
2022/03/13 09:56:10;;;;;;;36.83;16.63;;;8.00;34.30;;;;;;5071397;28;20032;-82
2022/03/13 09:58:35;;;;;;;37.92;16.27;;;8.10;33.50;;;;;;5072197;28;20028;-83
2022/03/13 10:01:01;;;;;;;32.13;14.75;;;8.20;32.90;;;;;;5088280;28;20028;-84
2022/03/13 10:03:27;;;;;;;40.65;17.50;;;8.30;32.70;;;;;;5071246;28;20112;-84
2022/03/13 10:05:55;;;;;;;42.97;17.73;;;8.30;32.80;;;;;;5071392;28;20500;-82
2022/03/13 10:08:28;;;;;;;25.67;13.07;;;8.50;32.70;;;;;;5071575;28;20024;-82
2022/03/13 10:10:54;;;;;;;29.13;11.40;;;8.60;32.50;;;;;;5070731;28;20377;-83
2022/03/13 10:13:34;;;;;;;31.27;12.90;;;8.80;32.00;;;;;;5072807;28;20029;-84
2022/03/13 10:15:59;;;;;;;29.03;11.97;;;8.90;31.50;;;;;;5070384;28;20028;-83
2022/03/13 10:18:27;;;;;;;31.90;13.80;;;9.00;31.20;;;;;;5070881;28;20025;-83
2022/03/13 10:20:53;;;;;;;31.97;13.57;;;9.20;31.10;;;;;;5070916;28;20020;-83
2022/03/13 10:23:21;;;;;;;30.13;13.07;;;9.90;30.50;;;;;;5070360;28;20143;-83
2022/03/13 10:25:52;;;;;;;38.38;16.98;;;11.10;29.30;;;;;;5070942;28;20032;-84
2022/03/13 10:28:20;;;;;;;35.72;15.50;;;12.60;27.80;;;;;;5072448;28;20111;-88
2022/03/13 10:31:07;;;;;;;30.35;14.25;;;14.10;26.80;;;;;;5068591;28;20091;-86
2022/03/13 10:33:42;;;;;;;32.75;14.68;;;15.80;25.10;;;;;;5069121;28;20031;-87
2022/03/13 10:36:14;;;;;;;30.85;14.25;;;17.30;23.80;;;;;;5071511;28;20086;-85
2022/03/13 10:38:41;;;;;;;28.40;15.95;;;18.30;22.80;;;;;;5070509;28;20429;-85
2022/03/13 10:41:12;;;;;;;29.60;15.02;;;19.30;22.50;;;;;;5070420;28;20112;-85
2022/03/13 10:43:54;;;;;;;30.38;14.85;;;20.30;21.50;;;;;;5070426;28;20055;-84
2022/03/13 10:46:28;;;;;;;33.22;17.75;;;21.30;20.10;;;;;;5073204;28;20020;-85
2022/03/13 10:48:54;;;;;;;35.15;19.90;;;22.10;19.70;;;;;;5073928;28;20469;-85
2022/03/13 10:51:45;;;;;;;32.80;17.58;;;22.90;19.40;;;;;;5074126;28;20020;-85
2022/03/13 10:54:27;;;;;;;17.75;11.10;;;23.90;18.40;;;;;;5071845;28;20024;-84
2022/03/13 10:57:12;;;;;;;25.13;13.75;;;24.70;17.30;;;;;;5073832;28;20469;-84
2022/03/13 10:59:43;;;;;;;26.73;15.68;;;25.60;16.90;;;;;;5073479;28;20486;-84
2022/03/13 11:02:17;;;;;;;16.08;9.45;;;26.30;16.10;;;;;;5073203;28;20025;-86
2022/03/13 11:04:57;;;;;;;20.73;10.48;;;27.00;15.00;;;;;;5089504;28;20485;-85
2022/03/13 11:07:26;;;;;;;17.85;11.55;;;27.50;14.50;;;;;;5074101;28;20415;-84
2022/03/13 11:09:53;;;;;;;19.25;12.15;;;27.90;14.70;;;;;;5074089;28;20017;-84
2022/03/13 11:12:20;;;;;;;21.80;11.85;;;28.50;14.30;;;;;;5074107;28;20016;-84
2022/03/13 11:14:52;;;;;;;18.77;11.13;;;28.90;13.60;;;;;;5075312;28;20327;-85
2022/03/13 11:17:19;;;;;;;18.23;10.20;;;29.20;12.90;;;;;;5071683;28;20056;-85
2022/03/13 11:19:49;;;;;;;17.63;10.73;;;29.50;12.80;;;;;;5075138;28;20060;-85
2022/03/13 11:22:17;;;;;;;18.45;10.80;;;29.80;12.60;;;;;;5073750;28;20051;-85
2022/03/13 11:24:43;;;;;;;18.65;11.02;;;30.00;12.60;;;;;;5073489;28;20037;-85
2022/03/13 11:27:11;;;;;;;14.40;8.95;;;30.30;12.50;;;;;;5072100;28;20368;-80
2022/03/13 11:29:46;;;;;;;17.17;9.20;;;30.60;12.10;;;;;;5074717;28;20115;-84
2022/03/13 11:32:33;;;;;;;17.20;10.35;;;30.80;11.60;;;;;;5075546;28;20020;-84
2022/03/13 11:35:11;;;;;;;15.07;9.90;;;31.10;11.80;;;;;;5071249;28;20042;-84
2022/03/13 11:37:38;;;;;;;16.13;9.30;;;31.30;11.60;;;;;;5074718;28;20024;-83
2022/03/13 11:40:07;;;;;;;18.23;10.52;;;31.50;11.40;;;;;;5074045;28;20385;-87
2022/03/13 11:46:05;;;;;;;16.27;10.82;;;31.80;11.30;;;;;;5074877;28;20071;-85
2022/03/13 11:48:32;;;;;;;15.05;8.90;;;32.20;11.20;;;;;;5075175;28;20028;-85
2022/03/13 11:51:00;;;;;;;13.05;7.97;;;32.50;11.00;;;;;;5073651;28;20024;-85
2022/03/13 11:53:52;;;;;;;13.00;7.97;;;32.60;10.40;;;;;;5072937;28;20024;-81
2022/03/13 11:56:26;;;;;;;14.02;8.57;;;32.60;10.50;;;;;;5068787;28;20393;-84
2022/03/13 11:58:55;;;;;;;19.88;11.57;;;32.80;10.00;;;;;;5074721;28;20020;-84
2022/03/13 12:01:32;;;;;;;21.08;12.30;;;32.80;10.20;;;;;;5073122;28;20051;-84
2022/03/13 12:04:05;;;;;;;17.30;10.40;;;33.10;10.20;;;;;;5074223;28;20032;-87
2022/03/13 12:06:42;;;;;;;14.05;9.30;;;33.00;10.10;;;;;;5072629;28;20024;-87
2022/03/13 12:09:09;;;;;;;13.15;7.53;;;33.00;9.90;;;;;;5072764;28;20028;-87
2022/03/13 12:11:47;;;;;;;15.18;9.27;;;33.10;9.80;;;;;;5073740;28;20369;-85
2022/03/13 12:14:15;;;;;;;14.48;8.77;;;33.00;9.70;;;;;;5075680;28;20024;-84
2022/03/13 12:16:46;;;;;;;12.35;7.50;;;32.70;9.90;;;;;;5074782;28;20029;-86
2022/03/13 12:19:12;;;;;;;12.95;7.78;;;32.60;9.60;;;;;;5072114;28;20035;-86
2022/03/13 12:21:43;;;;;;;12.88;7.68;;;32.50;9.60;;;;;;5073181;28;20094;-85
2022/03/13 12:24:14;;;;;;;10.98;7.10;;;32.30;9.70;;;;;;5072762;28;20063;-86
2022/03/13 12:26:40;;;;;;;11.15;7.30;;;32.10;9.30;;;;;;5077267;28;20033;-85
2022/03/13 12:29:07;;;;;;;12.40;8.55;;;31.70;9.20;;;;;;5075266;28;20028;-86
2022/03/13 12:31:41;;;;;;;14.32;9.07;;;31.20;9.50;;;;;;5073574;28;20071;-85